Terminal Aerodrome Forecast
Issued by NWS

Home | Current Version | Previous Version | Graphics & Text | Print | Product List | Glossary On
Versions: 1 2 3 4 5 6 7 8 9 10 11 12 13 14 15 16 17 18 19
000
FTUS43 KBIS 281120
TAFMOT
TAF
KMOT 281120Z 2812/2912 23018G25KT P6SM OVC015
     FM281600 22025G38KT P6SM BKN030
     FM282100 24032G50KT P6SM VCSH SCT025 OVC035
     FM290000 25032G48KT P6SM -SHRA OVC035
     FM290600 27030KT P6SM BKN070=

USA.gov is the U.S. government's official web portal to all federal, state and local government web resources and services.